Gays Mills, Wisconsin
Current Conditions -  °F | °C
As of 9:09 AM on Thursday 23 Oct 2014 (Local Time) from KOVS Reporting Station
Light Rain Light Rain  
Wind Chill: 47°   Ceiling: 6500
Heat Index: 47°   Visibility: 3mi
Dew Point: 42°   Wind: 0mph
Humidity: 83%   Direction: NA
Pressure: 30.11"   Gusts: NA
Location:  43.32°N, 90.84°W
Report Text: KOVS 231409Z AUTO 00000KT 3SM -RA FEW024 BKN065 OVC085 08/06 A3011 RMK AO2 P0002 T00830056
Loading
Personal Weather Stations






























Interactive Weather Map
Tropical Storm Tracking
New forecast layout! Learn more

10-Day Weather Forecast

Advertisements
Track Severe Weather on mobile